Time;durP1;ratioP1;P1;durP2;ratioP2;P2;SDS_P1;SDS_P2;PMS_P1;PMS_P2;Temp;Humidity;BMP_temperature;BMP_pressure;BME280_temperature;BME280_humidity;BME280_pressure;Samples;Min_cycle;Max_cycle;Signal;HPM_P1;HPM_P2
2021/06/01 00:00:56;;;;;;;15.25;3.33;;;;;;;;;;7049344;28;20074;-77
2021/06/01 00:04:17;;;;;;;9.38;3.30;;;;;;;;;;7037046;28;20862;-76
2021/06/01 00:07:38;;;;;;;8.40;2.55;;;;;;;;;;7053510;28;20051;-76
2021/06/01 00:10:58;;;;;;;8.68;2.83;;;;;;;;;;7041702;28;20130;-77
2021/06/01 00:14:19;;;;;;;6.80;2.67;;;;;;;;;;7052358;28;20052;-76
2021/06/01 00:17:39;;;;;;;6.95;3.17;;;;;;;;;;7049658;28;20051;-75
2021/06/01 00:21:00;;;;;;;8.57;3.30;;;;;;;;;;7034306;28;20043;-76
2021/06/01 00:24:20;;;;;;;8.15;2.92;;;;;;;;;;7047769;28;20047;-76
2021/06/01 00:27:40;;;;;;;11.48;2.80;;;;;;;;;;7050365;28;20051;-76
2021/06/01 00:31:01;;;;;;;10.77;2.90;;;;;;;;;;7088459;22;20112;-76
2021/06/01 00:34:22;;;;;;;8.68;2.65;;;;;;;;;;7070250;28;20051;-75
2021/06/01 00:37:42;;;;;;;10.38;2.95;;;;;;;;;;7052226;28;20181;-76
2021/06/01 00:41:04;;;;;;;10.07;3.20;;;;;;;;;;7064527;28;20526;-76
2021/06/01 00:44:25;;;;;;;4.95;2.55;;;;;;;;;;7051626;28;20073;-76
2021/06/01 00:47:45;;;;;;;6.60;2.65;;;;;;;;;;7060350;28;20052;-76
2021/06/01 00:51:05;;;;;;;5.25;2.50;;;;;;;;;;7059015;28;20071;-75
2021/06/01 00:54:26;;;;;;;7.00;2.58;;;;;;;;;;7070851;28;20050;-75
2021/06/01 00:57:47;;;;;;;11.63;2.90;;;;;;;;;;7068180;28;20058;-76
2021/06/01 01:04:28;;;;;;;6.53;2.67;;;;;;;;;;7060198;28;20113;-76
2021/06/01 01:08:06;;;;;;;4.90;2.15;;;;;;;;;;7081049;27;20043;-75
2021/06/01 01:11:31;;;;;;;4.53;3.22;;;;;;;;;;7062808;28;20058;-75
2021/06/01 01:14:59;;;;;;;5.05;2.53;;;;;;;;;;7062522;28;20073;-76
2021/06/01 01:18:21;;;;;;;4.47;2.53;;;;;;;;;;7073773;28;20139;-76
2021/06/01 01:21:53;;;;;;;5.45;2.80;;;;;;;;;;7049461;28;20051;-76
2021/06/01 01:25:32;;;;;;;5.63;2.80;;;;;;;;;;7050818;28;20998;-75
2021/06/01 01:28:55;;;;;;;;;;;;;;;;;;7057637;28;20100;-75
2021/06/01 01:32:25;;;;;;;3.38;2.25;;;;;;;;;;7079570;28;19923;-75
2021/06/01 01:35:47;;;;;;;3.22;2.33;;;;;;;;;;7058588;28;20051;-76
2021/06/01 01:39:09;;;;;;;6.55;2.40;;;;;;;;;;7049353;28;20051;-75
2021/06/01 01:42:39;;;;;;;6.47;2.55;;;;;;;;;;7071370;28;20043;-75
2021/06/01 01:46:12;;;;;;;3.85;2.35;;;;;;;;;;7073222;27;20052;-75
2021/06/01 01:49:33;;;;;;;6.20;2.80;;;;;;;;;;7065419;28;20064;-75
2021/06/01 01:52:53;;;;;;;4.13;2.63;;;;;;;;;;7065171;28;20048;-75
2021/06/01 01:56:15;;;;;;;7.28;2.53;;;;;;;;;;7065769;28;20051;-75
2021/06/01 01:59:37;;;;;;;7.28;2.72;;;;;;;;;;7063407;28;20361;-75
2021/06/01 02:02:57;;;;;;;7.20;2.30;;;;;;;;;;7054348;27;20388;-76
2021/06/01 02:06:18;;;;;;;5.97;2.72;;;;;;;;;;7062623;28;20495;-76
2021/06/01 02:09:38;;;;;;;6.72;2.33;;;;;;;;;;7064029;27;20050;-76
2021/06/01 02:12:58;;;;;;;4.57;2.30;;;;;;;;;;7054596;28;20056;-76
2021/06/01 02:16:19;;;;;;;3.50;2.20;;;;;;;;;;7056955;28;20061;-75
2021/06/01 02:19:40;;;;;;;3.42;2.40;;;;;;;;;;7052307;27;20142;-75
2021/06/01 02:26:53;;;;;;;5.53;2.50;;;;;;;;;;7078152;28;20063;-75
2021/06/01 02:30:22;;;;;;;3.17;2.10;;;;;;;;;;7042183;28;20463;-75
2021/06/01 02:33:43;;;;;;;;;;;;;;;;;;7055742;28;20051;-76
2021/06/01 02:37:05;;;;;;;3.38;1.88;;;;;;;;;;7078195;27;20327;-75
2021/06/01 02:40:26;;;;;;;10.55;2.92;;;;;;;;;;7078180;27;20039;-75
2021/06/01 02:43:46;;;;;;;4.55;2.25;;;;;;;;;;7073576;27;20100;-74
2021/06/01 02:47:07;;;;;;;4.78;2.42;;;;;;;;;;7049059;28;20096;-75
2021/06/01 02:50:28;;;;;;;3.72;2.20;;;;;;;;;;7057581;28;20051;-76
2021/06/01 02:53:53;;;;;;;2.72;2.13;;;;;;;;;;7073532;28;20071;-76
2021/06/01 02:57:14;;;;;;;3.97;1.95;;;;;;;;;;7051274;27;20067;-76
2021/06/01 03:00:36;;;;;;;6.93;2.65;;;;;;;;;;7049160;28;20051;-75
2021/06/01 03:03:57;;;;;;;3.90;2.42;;;;;;;;;;7050087;28;20062;-75
2021/06/01 03:07:18;;;;;;;3.42;2.10;;;;;;;;;;7054676;28;20067;-76
2021/06/01 03:10:39;;;;;;;4.18;2.33;;;;;;;;;;7073934;27;20479;-75
2021/06/01 03:13:59;;;;;;;4.70;2.47;;;;;;;;;;7049737;28;20583;-75
2021/06/01 03:17:20;;;;;;;3.42;2.22;;;;;;;;;;7067680;28;20130;-75
2021/06/01 03:20:40;;;;;;;2.40;1.88;;;;;;;;;;7075164;27;20133;-75
2021/06/01 03:24:01;;;;;;;5.47;2.05;;;;;;;;;;7063598;28;20130;-76
2021/06/01 03:27:21;;;;;;;4.63;2.15;;;;;;;;;;7049786;28;20044;-75
2021/06/01 03:30:42;;;;;;;5.20;2.40;;;;;;;;;;7060769;28;20047;-75
2021/06/01 03:34:03;;;;;;;3.80;2.40;;;;;;;;;;7063655;28;20384;-75
2021/06/01 03:37:23;;;;;;;4.88;2.50;;;;;;;;;;7071977;28;20446;-75
2021/06/01 03:40:44;;;;;;;3.65;1.77;;;;;;;;;;7062205;28;20520;-75
2021/06/01 03:44:06;;;;;;;3.40;2.10;;;;;;;;;;7060749;27;20051;-75
2021/06/01 03:47:27;;;;;;;3.25;2.20;;;;;;;;;;7050796;28;20134;-75
2021/06/01 03:50:47;;;;;;;2.97;2.33;;;;;;;;;;7062130;28;20044;-75
2021/06/01 03:54:08;;;;;;;3.83;2.00;;;;;;;;;;7063588;28;20470;-75
2021/06/01 03:57:28;;;;;;;5.53;1.90;;;;;;;;;;7063619;27;20051;-75
2021/06/01 04:00:49;;;;;;;2.40;1.95;;;;;;;;;;7054263;28;20074;-76
2021/06/01 04:04:09;;;;;;;2.97;2.05;;;;;;;;;;7050414;28;20051;-76
2021/06/01 04:07:29;;;;;;;2.42;1.95;;;;;;;;;;7057313;28;20131;-76
2021/06/01 04:10:50;;;;;;;3.47;2.00;;;;;;;;;;7073177;28;20409;-76
2021/06/01 04:14:10;;;;;;;5.03;2.10;;;;;;;;;;7060618;27;20138;-75
2021/06/01 04:17:31;;;;;;;3.67;2.45;;;;;;;;;;7069679;28;20405;-75
2021/06/01 04:20:51;;;;;;;6.25;2.22;;;;;;;;;;7060246;28;20454;-75
2021/06/01 04:24:12;;;;;;;2.30;1.90;;;;;;;;;;7067926;28;20043;-75
2021/06/01 04:27:32;;;;;;;3.53;2.40;;;;;;;;;;7063166;28;20123;-76
2021/06/01 04:30:53;;;;;;;4.53;2.08;;;;;;;;;;7068114;27;20040;-75
2021/06/01 04:34:13;;;;;;;2.30;1.90;;;;;;;;;;7052121;28;20520;-75
2021/06/01 04:37:34;;;;;;;3.70;1.98;;;;;;;;;;7080148;28;20525;-75
2021/06/01 04:40:54;;;;;;;4.90;2.08;;;;;;;;;;7058302;27;20462;-75
2021/06/01 04:44:14;;;;;;;3.40;1.98;;;;;;;;;;7067635;28;20039;-76
2021/06/01 04:47:35;;;;;;;3.60;1.85;;;;;;;;;;7059764;28;20047;-74
2021/06/01 04:50:55;;;;;;;3.83;2.13;;;;;;;;;;7074377;28;20051;-75
2021/06/01 04:54:16;;;;;;;2.97;1.98;;;;;;;;;;7052154;28;20134;-75
2021/06/01 04:57:39;;;;;;;2.65;1.90;;;;;;;;;;7057815;28;20042;-75
2021/06/01 05:01:00;;;;;;;2.92;1.98;;;;;;;;;;7061309;27;20079;-75
2021/06/01 05:04:20;;;;;;;4.75;1.95;;;;;;;;;;7066404;28;20040;-75
2021/06/01 05:07:41;;;;;;;2.45;1.90;;;;;;;;;;7066726;27;20082;-76
2021/06/01 05:11:02;;;;;;;2.80;1.88;;;;;;;;;;7068052;28;20043;-75
2021/06/01 05:14:22;;;;;;;2.25;1.90;;;;;;;;;;7053896;28;20046;-75
2021/06/01 05:17:43;;;;;;;2.42;2.00;;;;;;;;;;7054096;28;20043;-75
2021/06/01 05:21:05;;;;;;;4.85;2.10;;;;;;;;;;7052881;28;20040;-74
2021/06/01 05:24:25;;;;;;;3.30;1.80;;;;;;;;;;7079333;27;20126;-76
2021/06/01 05:27:45;;;;;;;2.53;2.10;;;;;;;;;;7064542;28;20051;-75
2021/06/01 05:31:19;;;;;;;2.25;1.92;;;;;;;;;;7050402;28;20123;-75
2021/06/01 05:34:40;;;;;;;3.30;2.17;;;;;;;;;;7053648;28;20363;-75
2021/06/01 05:38:01;;;;;;;5.97;2.88;;;;;;;;;;7066273;28;20066;-75
2021/06/01 05:45:03;;;;;;;3.50;3.20;;;;;;;;;;6990124;28;20135;-75
2021/06/01 05:48:24;;;;;;;7.65;7.15;;;;;;;;;;6973311;28;20494;-75
2021/06/01 05:51:44;;;;;;;7.20;6.60;;;;;;;;;;6991288;28;20076;-77
2021/06/01 05:55:06;;;;;;;6.65;6.05;;;;;;;;;;6991495;28;20048;-75
2021/06/01 05:58:27;;;;;;;2.75;2.20;;;;;;;;;;6988431;28;20041;-75
2021/06/01 06:01:47;;;;;;;2.58;2.08;;;;;;;;;;6990727;28;20067;-75
2021/06/01 06:05:08;;;;;;;3.00;2.20;;;;;;;;;;6989462;28;20048;-75
2021/06/01 06:08:29;;;;;;;2.00;1.90;;;;;;;;;;6990220;28;20052;-75
2021/06/01 06:11:50;;;;;;;2.72;2.30;;;;;;;;;;6990985;28;20506;-76
2021/06/01 06:15:14;;;;;;;2.40;2.08;;;;;;;;;;6991799;28;20067;-75
2021/06/01 06:18:42;;;;;;;5.50;2.10;;;;;;;;;;6982709;28;20495;-74
2021/06/01 06:22:03;;;;;;;2.63;2.13;;;;;;;;;;7039912;28;20080;-75
2021/06/01 06:25:24;;;;;;;4.75;2.22;;;;;;;;;;7078545;28;20043;-75
2021/06/01 06:28:44;;;;;;;2.97;2.33;;;;;;;;;;7079218;27;20405;-75
2021/06/01 06:32:05;;;;;;;1.98;1.73;;;;;;;;;;7057276;27;20090;-76
2021/06/01 06:35:25;;;;;;;2.00;1.90;;;;;;;;;;7067317;28;20055;-76
2021/06/01 06:38:47;;;;;;;2.38;2.15;;;;;;;;;;7062428;27;20055;-77
2021/06/01 06:42:08;;;;;;;2.65;2.40;;;;;;;;;;7070785;28;20565;-77
2021/06/01 06:45:31;;;;;;;2.45;2.25;;;;;;;;;;7051184;28;20048;-77
2021/06/01 06:48:51;;;;;;;2.08;1.98;;;;;;;;;;7065534;27;20059;-77
2021/06/01 06:52:12;;;;;;;2.40;2.20;;;;;;;;;;7071252;27;20074;-77
2021/06/01 06:55:33;;;;;;;3.85;2.20;;;;;;;;;;7051826;28;20434;-77
2021/06/01 06:58:56;;;;;;;2.53;1.98;;;;;;;;;;7062401;28;20043;-78
2021/06/01 07:02:19;;;;;;;2.58;2.08;;;;;;;;;;7064606;28;20047;-78
2021/06/01 07:05:39;;;;;;;2.33;2.13;;;;;;;;;;7064292;28;20058;-78
2021/06/01 07:08:59;;;;;;;2.30;2.10;;;;;;;;;;7072363;28;20123;-78
2021/06/01 07:12:20;;;;;;;2.22;2.03;;;;;;;;;;7065155;28;20039;-78
2021/06/01 07:15:45;;;;;;;2.20;2.00;;;;;;;;;;7064878;28;20051;-78
2021/06/01 07:19:06;;;;;;;2.40;2.20;;;;;;;;;;7065586;28;20043;-78
2021/06/01 07:22:26;;;;;;;3.47;2.10;;;;;;;;;;7050037;28;20050;-77
2021/06/01 07:25:47;;;;;;;2.90;2.30;;;;;;;;;;7071787;28;20047;-78
2021/06/01 07:29:07;;;;;;;2.20;2.00;;;;;;;;;;7065570;28;20126;-78
2021/06/01 07:32:28;;;;;;;2.25;2.05;;;;;;;;;;7053393;27;20488;-77
2021/06/01 07:35:48;;;;;;;2.25;1.98;;;;;;;;;;7068710;28;20054;-77
2021/06/01 07:39:08;;;;;;;3.00;2.22;;;;;;;;;;7069172;28;20493;-77
2021/06/01 07:42:29;;;;;;;2.33;2.13;;;;;;;;;;7076391;28;20047;-77
2021/06/01 07:45:49;;;;;;;2.83;2.03;;;;;;;;;;7060629;28;20130;-77
2021/06/01 07:49:10;;;;;;;2.55;2.30;;;;;;;;;;7069086;28;20062;-78
2021/06/01 07:52:30;;;;;;;2.47;2.00;;;;;;;;;;7074758;28;20054;-78
2021/06/01 07:55:52;;;;;;;2.40;2.20;;;;;;;;;;7067454;27;20043;-77
2021/06/01 07:59:13;;;;;;;4.63;2.15;;;;;;;;;;7071311;27;20091;-77
2021/06/01 08:02:33;;;;;;;6.00;2.17;;;;;;;;;;7069551;28;20397;-77
2021/06/01 08:05:54;;;;;;;2.40;2.20;;;;;;;;;;7063690;28;20043;-77
2021/06/01 08:09:14;;;;;;;1.90;1.80;;;;;;;;;;7072259;27;20047;-77
2021/06/01 08:12:35;;;;;;;2.38;2.13;;;;;;;;;;7053162;28;20386;-78
2021/06/01 08:16:01;;;;;;;4.07;2.13;;;;;;;;;;7065273;28;20055;-78
2021/06/01 08:19:25;;;;;;;2.75;2.08;;;;;;;;;;7060071;28;20055;-77
2021/06/01 08:22:45;;;;;;;2.20;2.00;;;;;;;;;;7076316;27;20067;-77
2021/06/01 08:26:06;;;;;;;2.85;2.15;;;;;;;;;;7068133;28;21062;-78
2021/06/01 08:29:26;;;;;;;5.45;2.20;;;;;;;;;;7068839;28;20508;-79
2021/06/01 08:32:47;;;;;;;3.33;2.08;;;;;;;;;;7052156;28;20039;-77
2021/06/01 08:36:07;;;;;;;2.97;2.10;;;;;;;;;;7061060;28;20039;-78
2021/06/01 08:39:28;;;;;;;2.25;2.05;;;;;;;;;;7064641;28;20078;-78
2021/06/01 08:43:01;;;;;;;4.53;1.90;;;;;;;;;;7050793;28;20056;-77
2021/06/01 08:46:25;;;;;;;2.33;2.08;;;;;;;;;;7073200;28;20553;-76
2021/06/01 08:49:49;;;;;;;3.67;2.10;;;;;;;;;;7066222;27;20085;-76
2021/06/01 08:53:09;;;;;;;2.42;2.00;;;;;;;;;;7052063;28;20137;-77
2021/06/01 08:56:30;;;;;;;5.80;1.92;;;;;;;;;;7067326;28;20043;-77
2021/06/01 08:59:50;;;;;;;3.63;2.20;;;;;;;;;;7078938;28;20077;-78
2021/06/01 09:03:13;;;;;;;2.70;2.05;;;;;;;;;;7053546;27;20447;-77
2021/06/01 09:06:47;;;;;;;5.07;1.60;;;;;;;;;;7065938;28;20075;-77
2021/06/01 09:10:39;;;;;;;2.45;1.70;;;;;;;;;;7052292;28;20102;-77
2021/06/01 09:21:29;;;;;;;4.28;1.65;;;;;;;;;;7067541;28;20043;-77
2021/06/01 09:25:05;;;;;;;2.40;1.33;;;;;;;;;;7066047;28;20050;-77
2021/06/01 09:28:25;;;;;;;1.98;1.58;;;;;;;;;;7055026;28;20493;-77
2021/06/01 09:32:06;;;;;;;2.20;1.52;;;;;;;;;;7068839;28;20047;-77
2021/06/01 09:35:52;;;;;;;1.65;1.55;;;;;;;;;;7070920;28;20043;-77
2021/06/01 09:39:23;;;;;;;7.93;1.98;;;;;;;;;;7052692;28;20051;-78
2021/06/01 09:42:51;;;;;;;2.95;1.65;;;;;;;;;;7067838;28;20047;-77
2021/06/01 09:46:38;;;;;;;5.10;1.97;;;;;;;;;;7065344;28;20055;-78
2021/06/01 09:50:13;;;;;;;2.20;2.00;;;;;;;;;;7069862;28;20031;-77
2021/06/01 09:53:36;;;;;;;3.50;1.80;;;;;;;;;;7066160;27;20043;-78
2021/06/01 09:56:57;;;;;;;2.65;1.80;;;;;;;;;;7076025;27;20122;-78
2021/06/01 10:00:24;;;;;;;2.15;1.75;;;;;;;;;;7059866;27;20048;-77
2021/06/01 10:03:49;;;;;;;4.43;1.60;;;;;;;;;;7065682;28;20400;-78
2021/06/01 10:07:26;;;;;;;2.10;1.60;;;;;;;;;;7065404;28;20044;-77
2021/06/01 10:10:57;;;;;;;11.00;3.25;;;;;;;;;;7057832;28;20043;-80
2021/06/01 10:14:18;;;;;;;5.70;3.00;;;;;;;;;;7063758;27;20491;-81
2021/06/01 10:17:38;;;;;;;6.05;3.38;;;;;;;;;;7057785;28;20089;-81
2021/06/01 10:21:07;;;;;;;3.55;2.72;;;;;;;;;;7057028;28;20052;-82
2021/06/01 10:24:27;;;;;;;7.78;2.30;;;;;;;;;;7069434;28;20047;-81
2021/06/01 10:27:50;;;;;;;5.32;2.92;;;;;;;;;;7070498;28;20048;-81
2021/06/01 10:31:13;;;;;;;3.95;2.50;;;;;;;;;;7058676;28;20056;-81
2021/06/01 10:34:35;;;;;;;4.70;4.18;;;;;;;;;;7056147;28;20054;-81
2021/06/01 10:53:34;;;;;;;6.85;3.55;;;;;;;;;;7062857;27;20085;-84
2021/06/01 10:56:53;;;;;;;6.10;4.25;;;;;;;;;;7065964;28;20035;-86
2021/06/01 11:04:05;;;;;;;3.92;3.20;;;;;;;;;;7066072;27;20055;-79
2021/06/01 11:07:40;;;;;;;3.70;3.28;;;;;;;;;;7074789;27;20070;-76
2021/06/01 11:11:24;;;;;;;5.13;2.75;;;;;;;;;;7058759;28;20478;-77
2021/06/01 11:14:49;;;;;;;4.35;2.78;;;;;;;;;;7066630;28;20059;-77
2021/06/01 11:18:30;;;;;;;5.32;2.92;;;;;;;;;;7054479;28;20043;-78
2021/06/01 11:22:04;;;;;;;2.45;1.90;;;;;;;;;;7067839;28;21041;-77
2021/06/01 11:32:49;;;;;;;7.75;2.30;;;;;;;;;;7063900;28;20047;-78
2021/06/01 11:33:00;;;;;;;2.47;2.00;;;;;;;;;;7068940;28;20039;-77
2021/06/01 11:36:21;;;;;;;2.63;1.70;;;;;;;;;;7057098;28;20117;-76
2021/06/01 11:43:21;;;;;;;3.00;1.92;;;;;;;;;;7070446;28;20047;-78
2021/06/01 11:46:49;;;;;;;6.38;1.80;;;;;;;;;;7070380;28;20100;-77
2021/06/01 11:53:56;;;;;;;3.10;1.88;;;;;;;;;;7062408;28;20063;-77
2021/06/01 11:57:30;;;;;;;3.00;1.80;;;;;;;;;;7068452;28;20054;-78
2021/06/01 12:04:53;;;;;;;3.40;2.03;;;;;;;;;;7063000;28;20126;-76
2021/06/01 12:12:11;;;;;;;1.88;1.77;;;;;;;;;;7056419;28;20464;-78
2021/06/01 12:19:13;;;;;;;2.92;1.63;;;;;;;;;;7065475;28;20047;-76
2021/06/01 12:22:33;;;;;;;2.08;1.85;;;;;;;;;;7066341;28;20039;-77
2021/06/01 12:26:18;;;;;;;3.45;1.95;;;;;;;;;;7063692;28;20071;-77
2021/06/01 12:33:23;;;;;;;1.75;1.60;;;;;;;;;;7093850;22;20720;-81
2021/06/01 12:44:20;;;;;;;1.90;1.70;;;;;;;;;;7010068;28;20091;-81
2021/06/01 13:09:52;;;;;;;1.65;1.52;;;;;;;;;;7015642;28;20359;-81
2021/06/01 13:20:35;;;;;;;3.13;1.90;;;;;;;;;;7011178;28;20061;-82
2021/06/01 13:24:22;;;;;;;2.63;1.70;;;;;;;;;;7033717;28;20079;-81
2021/06/01 13:36:28;;;;;;;2.38;1.88;;;;;;;;;;7002987;28;20037;-83
2021/06/01 13:46:16;;;;;;;2.35;1.67;;;;;;;;;;7008909;28;20653;-83
2021/06/01 13:56:37;;;;;;;2.83;1.85;;;;;;;;;;7010851;28;20052;-83
2021/06/01 17:04:47;;;;;;;7.00;2.58;;;;;;;;;;7018702;28;20040;-88
2021/06/01 17:11:39;;;;;;;4.22;2.08;;;;;;;;;;7015240;28;20059;-85
2021/06/01 17:15:00;;;;;;;17.25;2.72;;;;;;;;;;7015889;28;20089;-85
2021/06/01 17:36:54;;;;;;;2.70;2.30;;;;;;;;;;6937507;28;20503;-85
2021/06/01 17:40:18;;;;;;;5.10;1.95;;;;;;;;;;6929795;28;20081;-85
2021/06/01 17:43:41;;;;;;;3.03;2.03;;;;;;;;;;6917552;28;20057;-84
2021/06/01 17:47:03;;;;;;;11.38;2.35;;;;;;;;;;6912536;28;20458;-86
2021/06/01 17:50:24;;;;;;;3.35;2.20;;;;;;;;;;6917293;28;20058;-85
2021/06/01 17:53:49;;;;;;;5.82;1.70;;;;;;;;;;6929705;28;20072;-85
2021/06/01 17:57:09;;;;;;;3.90;2.03;;;;;;;;;;6987947;28;20461;-86
2021/06/01 18:00:30;;;;;;;4.25;2.05;;;;;;;;;;7015958;28;20515;-86
2021/06/01 18:07:20;;;;;;;3.17;2.10;;;;;;;;;;7011337;28;20044;-86
2021/06/01 19:52:46;;;;;;;4.82;2.10;;;;;;;;;;7021921;28;20346;-85
2021/06/01 19:56:08;;;;;;;3.17;1.90;;;;;;;;;;7022823;28;20398;-87
2021/06/01 19:59:28;;;;;;;3.95;1.73;;;;;;;;;;7025017;28;20052;-86
2021/06/01 20:02:49;;;;;;;4.20;1.75;;;;;;;;;;7012991;28;20052;-86
2021/06/01 20:06:10;;;;;;;2.45;1.83;;;;;;;;;;7042141;28;20044;-85
2021/06/01 20:09:31;;;;;;;3.70;1.80;;;;;;;;;;7025074;28;20052;-82
2021/06/01 20:12:52;;;;;;;2.80;1.92;;;;;;;;;;7024765;28;20066;-82
2021/06/01 20:16:15;;;;;;;2.90;1.83;;;;;;;;;;7024492;28;20396;-83
2021/06/01 20:19:38;;;;;;;3.65;1.90;;;;;;;;;;7024993;28;20497;-83
2021/06/01 20:23:06;;;;;;;2.20;1.42;;;;;;;;;;7025295;28;20173;-84
2021/06/01 20:26:29;;;;;;;2.72;1.88;;;;;;;;;;7025735;28;20160;-84
2021/06/01 20:29:51;;;;;;;4.13;1.90;;;;;;;;;;7015618;28;20052;-83
2021/06/01 20:33:13;;;;;;;4.72;1.83;;;;;;;;;;7024963;28;20048;-83
2021/06/01 20:36:33;;;;;;;7.28;1.98;;;;;;;;;;7025427;28;20036;-83
2021/06/01 20:39:58;;;;;;;3.95;1.70;;;;;;;;;;7016203;28;20044;-84
2021/06/01 20:43:19;;;;;;;2.50;1.63;;;;;;;;;;7023783;28;20092;-85
2021/06/01 20:46:39;;;;;;;2.15;1.77;;;;;;;;;;7023839;28;20044;-84
2021/06/01 20:50:00;;;;;;;7.85;2.00;;;;;;;;;;7023780;28;20119;-79
2021/06/01 20:53:23;;;;;;;6.90;2.30;;;;;;;;;;7022810;28;20075;-82
2021/06/01 20:56:43;;;;;;;5.55;2.33;;;;;;;;;;7016195;28;20064;-82
